Time;durP1;ratioP1;P1;durP2;ratioP2;P2;SDS_P1;SDS_P2;PMS_P1;PMS_P2;Temp;Humidity;BMP_temperature;BMP_pressure;BME280_temperature;BME280_humidity;BME280_pressure;Samples;Min_cycle;Max_cycle;Signal;HPM_P1;HPM_P2
2022/10/08 00:01:10;;;;;;;0.30;0.30;;;12.30;99.90;;;;;;5084727;28;20051;-82
2022/10/08 00:03:39;;;;;;;0.70;0.70;;;12.20;99.90;;;;;;5086558;28;20032;-86
2022/10/08 00:06:11;;;;;;;0.38;0.38;;;12.20;99.90;;;;;;5076401;28;20105;-84
2022/10/08 00:08:40;;;;;;;0.75;0.75;;;12.20;99.90;;;;;;5075185;28;20082;-82
2022/10/08 00:11:10;;;;;;;0.63;0.63;;;12.20;99.90;;;;;;5088662;28;20039;-83
2022/10/08 00:13:41;;;;;;;0.30;0.30;;;12.10;99.90;;;;;;5083136;28;20048;-83
2022/10/08 00:16:12;;;;;;;0.57;0.57;;;12.10;99.90;;;;;;5074996;28;20037;-83
2022/10/08 00:18:39;;;;;;;0.40;0.40;;;12.20;99.90;;;;;;5076385;28;20032;-84
2022/10/08 00:21:13;;;;;;;0.40;0.40;;;12.20;99.90;;;;;;5067982;28;20401;-85
2022/10/08 00:23:45;;;;;;;0.40;0.40;;;12.20;99.90;;;;;;5086786;28;20087;-82
2022/10/08 00:26:17;;;;;;;0.22;0.22;;;12.20;99.90;;;;;;5094172;28;20100;-81
2022/10/08 00:28:45;;;;;;;1.30;0.73;;;12.10;99.90;;;;;;5098104;28;20059;-83
2022/10/08 00:31:21;;;;;;;0.40;0.40;;;12.20;99.90;;;;;;5074942;28;20453;-84
2022/10/08 00:33:57;;;;;;;0.30;0.30;;;12.20;99.90;;;;;;5077536;28;20138;-83
2022/10/08 00:36:27;;;;;;;0.30;0.30;;;12.10;99.90;;;;;;5064557;28;20129;-81
2022/10/08 00:39:06;;;;;;;0.30;0.30;;;12.20;99.90;;;;;;5081930;28;20052;-81
2022/10/08 00:41:37;;;;;;;0.50;0.50;;;12.20;99.90;;;;;;5078899;28;20040;-84
2022/10/08 00:44:41;;;;;;;0.50;0.50;;;12.10;99.90;;;;;;5065860;28;20132;-82
2022/10/08 00:47:36;;;;;;;0.50;0.50;;;12.10;99.90;;;;;;5083233;28;20044;-82
2022/10/08 00:50:22;;;;;;;0.50;0.50;;;12.10;99.90;;;;;;5084544;28;20523;-85
2022/10/08 00:53:02;;;;;;;0.40;0.40;;;12.10;99.90;;;;;;5080279;28;20083;-82
2022/10/08 00:55:30;;;;;;;0.30;0.30;;;12.00;99.90;;;;;;5070529;28;20449;-83
2022/10/08 00:58:01;;;;;;;0.30;0.30;;;12.10;99.90;;;;;;5047061;28;20040;-84
2022/10/08 01:00:27;;;;;;;0.38;0.38;;;12.10;99.90;;;;;;5068523;28;20096;-84
2022/10/08 01:02:56;;;;;;;0.40;0.40;;;12.10;99.90;;;;;;5085429;28;20570;-84
2022/10/08 01:06:05;;;;;;;0.43;0.43;;;12.10;99.90;;;;;;5051490;28;20039;-84
2022/10/08 01:08:47;;;;;;;0.50;0.50;;;12.10;99.90;;;;;;5086857;28;20047;-83
2022/10/08 01:11:58;;;;;;;0.30;0.30;;;12.10;99.90;;;;;;5085464;28;20059;-83
2022/10/08 01:14:48;;;;;;;0.50;0.50;;;12.00;99.90;;;;;;5059019;28;20044;-83
2022/10/08 01:17:21;;;;;;;0.40;0.40;;;12.00;99.90;;;;;;5090429;28;20055;-84
2022/10/08 01:19:59;;;;;;;0.40;0.40;;;12.10;99.90;;;;;;5090833;28;20040;-85
2022/10/08 01:22:37;;;;;;;0.55;0.50;;;12.10;99.90;;;;;;5096123;28;20392;-84
2022/10/08 01:25:32;;;;;;;0.55;0.50;;;12.10;99.90;;;;;;5080537;28;20410;-82
2022/10/08 01:28:24;;;;;;;0.47;0.47;;;12.00;99.90;;;;;;5085428;28;20052;-85
2022/10/08 01:31:12;;;;;;;0.30;0.30;;;12.00;99.90;;;;;;5084537;28;20405;-84
2022/10/08 01:34:06;;;;;;;0.90;0.90;;;12.00;99.90;;;;;;5080602;28;20040;-83
2022/10/08 01:36:45;;;;;;;1.20;0.98;;;12.00;99.90;;;;;;5083636;28;20127;-84
2022/10/08 01:39:18;;;;;;;0.30;0.30;;;12.00;99.90;;;;;;5087317;28;20115;-85
2022/10/08 01:41:50;;;;;;;0.30;0.30;;;11.90;99.90;;;;;;5083529;28;20453;-84
2022/10/08 01:44:22;;;;;;;0.30;0.30;;;11.90;99.90;;;;;;5071855;28;20052;-86
2022/10/08 01:46:50;;;;;;;0.40;0.40;;;11.80;99.90;;;;;;5089812;28;20374;-83
2022/10/08 01:49:22;;;;;;;0.60;0.60;;;11.70;99.90;;;;;;5065180;28;20049;-86
2022/10/08 01:51:55;;;;;;;0.40;0.40;;;11.60;99.90;;;;;;5091194;28;20072;-84
2022/10/08 01:54:27;;;;;;;0.40;0.40;;;11.50;99.90;;;;;;5056024;28;20435;-84
2022/10/08 01:56:56;;;;;;;0.40;0.40;;;11.50;99.90;;;;;;5079236;28;20083;-84
2022/10/08 01:59:42;;;;;;;0.38;0.38;;;11.50;99.90;;;;;;5065518;28;20032;-82
2022/10/08 02:02:14;;;;;;;;;;;11.40;99.90;;;;;;5086937;28;20415;-83
2022/10/08 02:04:40;;;;;;;0.50;0.50;;;11.30;99.90;;;;;;5064170;28;19923;-82
2022/10/08 02:07:19;;;;;;;0.38;0.38;;;11.40;99.90;;;;;;5052017;28;20057;-84
2022/10/08 02:09:52;;;;;;;0.40;0.40;;;11.30;99.90;;;;;;5085550;28;20047;-80
2022/10/08 02:12:19;;;;;;;0.50;0.50;;;11.20;99.90;;;;;;5073677;28;20098;-82
2022/10/08 02:14:56;;;;;;;0.30;0.30;;;11.30;99.90;;;;;;5042066;28;20486;-85
2022/10/08 02:17:39;;;;;;;;;;;11.20;99.90;;;;;;5074842;28;20429;-83
2022/10/08 02:20:32;;;;;;;0.40;0.40;;;11.10;99.90;;;;;;5081996;28;19974;-82
2022/10/08 02:23:12;;;;;;;0.40;0.40;;;11.10;99.90;;;;;;5091580;28;20044;-84
2022/10/08 02:26:23;;;;;;;0.93;0.93;;;11.10;99.90;;;;;;5090663;28;20071;-82
2022/10/08 02:28:58;;;;;;;0.30;0.30;;;11.00;99.90;;;;;;5025872;28;20588;-85
2022/10/08 02:31:40;;;;;;;0.30;0.30;;;11.00;99.90;;;;;;5025233;28;20497;-82
2022/10/08 02:34:21;;;;;;;0.30;0.30;;;11.00;99.90;;;;;;5029747;28;20052;-85
2022/10/08 02:36:53;;;;;;;0.40;0.40;;;11.00;99.90;;;;;;5024090;28;20075;-85
2022/10/08 02:39:26;;;;;;;0.47;0.47;;;11.00;99.90;;;;;;5035290;28;20257;-85
2022/10/08 02:41:56;;;;;;;0.40;0.40;;;10.90;99.90;;;;;;5087639;28;20051;-83
2022/10/08 02:44:33;;;;;;;0.50;0.50;;;10.90;99.90;;;;;;5075550;28;20072;-85
2022/10/08 02:47:03;;;;;;;1.05;1.05;;;10.80;99.90;;;;;;5083462;28;20055;-84
2022/10/08 02:49:33;;;;;;;0.35;0.35;;;10.80;99.90;;;;;;5084095;28;20556;-83
2022/10/08 02:52:02;;;;;;;0.40;0.40;;;10.80;99.90;;;;;;5088967;28;20420;-83
2022/10/08 02:54:34;;;;;;;0.43;0.43;;;10.70;99.90;;;;;;5082828;28;20040;-83
2022/10/08 02:57:38;;;;;;;4.30;0.82;;;10.80;99.90;;;;;;5088077;28;20844;-83
2022/10/08 03:00:05;;;;;;;0.47;0.47;;;10.80;99.90;;;;;;5088394;28;20055;-82
2022/10/08 03:03:00;;;;;;;0.63;0.63;;;10.80;99.90;;;;;;5045298;28;20502;-84
2022/10/08 03:05:28;;;;;;;0.40;0.40;;;10.80;99.90;;;;;;5073984;28;20039;-83
2022/10/08 03:07:55;;;;;;;0.40;0.40;;;10.80;99.90;;;;;;5045147;28;20052;-84
2022/10/08 03:10:24;;;;;;;0.60;0.60;;;10.80;99.90;;;;;;5088470;28;20059;-84
2022/10/08 03:12:52;;;;;;;0.30;0.30;;;10.80;99.90;;;;;;5074087;28;20550;-83
2022/10/08 03:15:18;;;;;;;0.50;0.50;;;10.80;99.90;;;;;;5073036;28;20032;-84
2022/10/08 03:17:46;;;;;;;0.40;0.40;;;10.70;99.90;;;;;;5058681;28;20039;-83
2022/10/08 03:20:14;;;;;;;0.40;0.40;;;10.70;99.90;;;;;;5083971;28;20044;-83
2022/10/08 03:22:40;;;;;;;0.32;0.32;;;10.70;99.90;;;;;;5075246;28;20119;-83
2022/10/08 03:25:06;;;;;;;0.30;0.30;;;10.60;99.90;;;;;;5068258;28;20584;-85
2022/10/08 03:27:34;;;;;;;0.50;0.50;;;10.60;99.90;;;;;;5065178;28;20044;-84
2022/10/08 03:30:02;;;;;;;0.90;0.90;;;10.60;99.90;;;;;;5066999;28;20056;-85
2022/10/08 03:32:29;;;;;;;0.43;0.43;;;10.60;99.90;;;;;;5059639;28;20044;-81
2022/10/08 03:34:55;;;;;;;0.30;0.30;;;10.60;99.90;;;;;;5084389;28;20089;-85
2022/10/08 03:37:22;;;;;;;0.43;0.43;;;10.60;99.90;;;;;;5090077;28;20079;-84
2022/10/08 03:39:48;;;;;;;0.52;0.52;;;10.50;99.90;;;;;;5085073;28;20039;-82
2022/10/08 03:42:13;;;;;;;0.40;0.40;;;10.50;99.90;;;;;;5053468;28;20063;-83
2022/10/08 03:44:39;;;;;;;2.40;1.17;;;10.50;99.90;;;;;;5088830;28;20036;-83
2022/10/08 03:47:05;;;;;;;0.32;0.32;;;10.50;99.90;;;;;;5066092;28;20444;-86
2022/10/08 03:49:32;;;;;;;0.45;0.45;;;10.50;99.90;;;;;;5068938;28;20052;-84
2022/10/08 03:51:58;;;;;;;0.35;0.35;;;10.50;99.90;;;;;;5089794;28;20040;-84
2022/10/08 03:54:24;;;;;;;0.40;0.40;;;10.50;99.90;;;;;;5086981;28;20032;-84
2022/10/08 03:56:49;;;;;;;0.40;0.40;;;10.60;99.90;;;;;;5083713;28;20043;-83
2022/10/08 03:59:15;;;;;;;0.40;0.40;;;10.60;99.90;;;;;;5075699;28;20405;-85
2022/10/08 04:01:41;;;;;;;;;;;10.70;99.90;;;;;;5067222;28;20048;-83
2022/10/08 04:04:07;;;;;;;0.40;0.40;;;10.60;99.90;;;;;;5084873;28;19927;-83
2022/10/08 04:06:33;;;;;;;0.73;0.73;;;10.70;99.90;;;;;;5092859;28;20048;-85
2022/10/08 04:09:04;;;;;;;0.30;0.30;;;10.60;99.90;;;;;;5082859;28;20044;-85
2022/10/08 04:11:31;;;;;;;0.45;0.45;;;10.50;99.90;;;;;;5063159;28;20477;-83
2022/10/08 04:13:59;;;;;;;0.40;0.40;;;10.50;99.90;;;;;;5062110;28;20120;-82
2022/10/08 04:16:25;;;;;;;0.30;0.30;;;10.40;99.90;;;;;;5084165;28;20048;-82
2022/10/08 04:18:50;;;;;;;0.50;0.50;;;10.30;99.90;;;;;;5085114;28;20370;-83
2022/10/08 04:21:17;;;;;;;0.40;0.40;;;10.40;99.90;;;;;;5074013;28;20087;-85
2022/10/08 04:23:44;;;;;;;0.75;0.75;;;10.40;99.90;;;;;;5082341;28;20040;-82
2022/10/08 04:26:17;;;;;;;0.30;0.30;;;10.30;99.90;;;;;;5069139;28;20071;-85
2022/10/08 04:28:44;;;;;;;0.40;0.40;;;10.30;99.90;;;;;;5066408;28;20066;-84
2022/10/08 04:31:15;;;;;;;1.30;1.30;;;10.30;99.90;;;;;;5069606;28;20396;-82
2022/10/08 04:33:41;;;;;;;0.40;0.40;;;10.40;99.90;;;;;;5092532;28;20496;-84
2022/10/08 04:36:08;;;;;;;;;;;10.30;99.90;;;;;;5093673;28;20432;-83
2022/10/08 04:38:33;;;;;;;0.40;0.40;;;10.20;99.90;;;;;;5086106;28;20408;-85
2022/10/08 04:41:07;;;;;;;0.43;0.43;;;10.60;99.90;;;;;;5091829;28;20047;-85
2022/10/08 04:43:35;;;;;;;0.50;0.50;;;10.20;99.90;;;;;;5081855;28;20067;-86
2022/10/08 04:46:01;;;;;;;0.60;0.60;;;10.20;99.90;;;;;;5077640;28;20094;-83
2022/10/08 04:48:30;;;;;;;0.47;0.47;;;10.20;99.90;;;;;;5087962;28;20090;-85
2022/10/08 04:51:01;;;;;;;0.40;0.40;;;10.20;99.90;;;;;;5077159;28;20422;-85
2022/10/08 04:53:28;;;;;;;1.05;1.05;;;10.10;99.90;;;;;;5084567;28;20067;-86
2022/10/08 04:55:55;;;;;;;0.65;0.65;;;10.10;99.90;;;;;;5077278;28;20048;-83
2022/10/08 04:58:23;;;;;;;0.30;0.30;;;9.90;99.90;;;;;;5083669;28;20036;-82
2022/10/08 05:00:48;;;;;;;0.40;0.40;;;10.10;99.90;;;;;;5072701;28;20437;-83
2022/10/08 05:03:14;;;;;;;0.68;0.68;;;10.10;99.90;;;;;;5084844;28;20036;-82
2022/10/08 05:05:41;;;;;;;0.50;0.50;;;10.00;99.90;;;;;;5047904;28;20032;-83
2022/10/08 05:08:07;;;;;;;0.50;0.50;;;10.00;99.90;;;;;;5071174;28;20035;-84
2022/10/08 05:10:33;;;;;;;0.47;0.47;;;9.90;99.90;;;;;;5067440;28;20611;-84
2022/10/08 05:12:59;;;;;;;0.40;0.40;;;9.90;99.90;;;;;;5068199;28;20357;-83
2022/10/08 05:15:25;;;;;;;1.10;1.10;;;9.90;99.90;;;;;;5051777;28;20050;-83
2022/10/08 05:17:50;;;;;;;0.40;0.40;;;10.00;99.90;;;;;;5085518;28;20113;-83
2022/10/08 05:20:16;;;;;;;0.40;0.40;;;9.90;99.90;;;;;;5086009;28;20051;-82
2022/10/08 05:22:42;;;;;;;0.40;0.40;;;9.90;99.90;;;;;;5089945;28;20043;-80
2022/10/08 05:25:08;;;;;;;0.40;0.40;;;9.90;99.90;;;;;;5076829;28;20069;-81
2022/10/08 05:27:34;;;;;;;0.60;0.60;;;10.00;99.90;;;;;;5092192;28;20461;-82
2022/10/08 05:30:01;;;;;;;0.30;0.30;;;9.90;99.90;;;;;;5068423;28;20115;-81
2022/10/08 05:32:27;;;;;;;0.60;0.60;;;9.90;99.90;;;;;;5084115;28;20059;-83
2022/10/08 05:34:53;;;;;;;0.47;0.47;;;9.90;99.90;;;;;;5055837;28;20487;-84
2022/10/08 05:37:20;;;;;;;0.52;0.52;;;9.80;99.90;;;;;;5090936;28;20126;-83
2022/10/08 05:39:47;;;;;;;0.40;0.40;;;9.80;99.90;;;;;;5065216;28;20071;-83
2022/10/08 05:42:14;;;;;;;0.40;0.40;;;9.80;99.90;;;;;;5083270;28;20101;-83
2022/10/08 05:44:39;;;;;;;2.15;1.65;;;9.80;99.90;;;;;;5086978;28;20040;-85
2022/10/08 05:47:05;;;;;;;0.50;0.50;;;9.80;99.90;;;;;;5091750;28;20522;-84
2022/10/08 05:49:31;;;;;;;0.52;0.52;;;9.80;99.90;;;;;;5080326;28;20040;-82
2022/10/08 05:51:57;;;;;;;0.60;0.57;;;9.80;99.90;;;;;;5070874;28;20051;-83
2022/10/08 05:54:25;;;;;;;0.50;0.50;;;9.80;99.90;;;;;;5042696;28;20036;-83
2022/10/08 05:56:50;;;;;;;0.43;0.43;;;9.80;99.90;;;;;;5090193;28;20040;-84
2022/10/08 05:59:22;;;;;;;0.30;0.30;;;9.80;99.90;;;;;;5080584;28;20043;-83
2022/10/08 06:01:48;;;;;;;0.38;0.38;;;9.70;99.90;;;;;;5094618;28;20072;-85
2022/10/08 06:04:20;;;;;;;2.05;1.13;;;9.70;99.90;;;;;;5076497;28;20035;-85
2022/10/08 06:06:46;;;;;;;0.50;0.50;;;9.70;99.90;;;;;;5076783;28;20040;-85
2022/10/08 06:09:14;;;;;;;0.50;0.50;;;9.70;99.90;;;;;;5086744;28;20596;-88
2022/10/08 06:11:47;;;;;;;0.43;0.43;;;9.70;99.90;;;;;;5074081;28;20032;-86
2022/10/08 06:14:15;;;;;;;0.50;0.50;;;9.80;99.90;;;;;;5096412;28;20070;-85
2022/10/08 06:16:41;;;;;;;0.45;0.45;;;9.70;99.90;;;;;;5097073;28;20447;-84
2022/10/08 06:19:07;;;;;;;0.43;0.43;;;9.70;99.90;;;;;;5056789;28;20087;-84
2022/10/08 06:21:34;;;;;;;;;;;9.70;99.90;;;;;;5082460;28;20488;-86
2022/10/08 06:24:02;;;;;;;0.40;0.40;;;9.70;99.90;;;;;;5077242;28;20014;-85
2022/10/08 06:26:32;;;;;;;0.40;0.40;;;9.70;99.90;;;;;;5086202;28;20092;-86
2022/10/08 06:28:58;;;;;;;0.40;0.40;;;9.70;99.90;;;;;;5091737;28;20126;-85
2022/10/08 06:31:24;;;;;;;;;;;9.80;99.90;;;;;;5065277;28;20522;-81
2022/10/08 06:33:53;;;;;;;0.45;0.45;;;9.70;99.90;;;;;;5102294;28;19923;-85
2022/10/08 06:36:24;;;;;;;0.50;0.50;;;9.70;99.90;;;;;;5094667;28;20100;-88
2022/10/08 06:38:52;;;;;;;0.40;0.40;;;10.00;99.90;;;;;;5087013;28;20042;-86
2022/10/08 06:41:18;;;;;;;0.30;0.30;;;10.10;99.90;;;;;;5094126;28;20388;-85
2022/10/08 06:43:45;;;;;;;0.80;0.80;;;10.00;99.90;;;;;;5076178;28;20123;-85
2022/10/08 06:46:11;;;;;;;0.95;0.70;;;10.20;99.90;;;;;;5068978;28;20040;-86
2022/10/08 06:48:37;;;;;;;0.40;0.40;;;10.50;99.90;;;;;;5079327;28;20546;-84
2022/10/08 06:51:12;;;;;;;0.43;0.43;;;10.80;99.90;;;;;;5084026;28;20087;-85
2022/10/08 06:53:39;;;;;;;0.50;0.50;;;10.80;99.90;;;;;;5064617;28;20074;-86
2022/10/08 06:56:09;;;;;;;0.60;0.60;;;10.90;99.90;;;;;;5086616;28;20131;-86
2022/10/08 06:58:39;;;;;;;0.50;0.50;;;11.10;99.90;;;;;;5083215;28;20032;-85
2022/10/08 07:01:13;;;;;;;0.40;0.40;;;11.20;99.90;;;;;;5093554;28;20370;-86
2022/10/08 07:03:43;;;;;;;0.38;0.38;;;11.10;99.90;;;;;;5093442;28;20512;-86
2022/10/08 07:06:11;;;;;;;0.50;0.50;;;11.00;99.90;;;;;;5076823;28;20048;-85
2022/10/08 07:08:37;;;;;;;0.40;0.40;;;11.00;99.90;;;;;;5089377;28;20040;-85
2022/10/08 07:11:08;;;;;;;0.43;0.43;;;11.00;99.90;;;;;;5092124;28;20048;-85
2022/10/08 07:13:35;;;;;;;0.40;0.40;;;11.00;99.90;;;;;;5082685;28;20048;-85
2022/10/08 07:16:06;;;;;;;0.43;0.43;;;11.00;99.90;;;;;;5060648;28;20043;-87
2022/10/08 07:18:40;;;;;;;0.30;0.30;;;11.00;99.90;;;;;;5069590;28;20075;-86
2022/10/08 07:21:10;;;;;;;0.45;0.45;;;11.10;99.90;;;;;;5088602;28;20113;-85
2022/10/08 07:23:36;;;;;;;0.38;0.38;;;11.00;99.90;;;;;;5108818;28;20054;-87
2022/10/08 07:26:22;;;;;;;2.38;2.28;;;11.10;99.90;;;;;;5071353;28;20386;-87
2022/10/08 07:28:59;;;;;;;0.40;0.40;;;11.20;99.90;;;;;;5085679;28;20040;-86
2022/10/08 07:31:28;;;;;;;0.40;0.40;;;11.10;99.90;;;;;;5085971;28;20430;-85
2022/10/08 07:34:00;;;;;;;0.40;0.40;;;11.10;99.90;;;;;;5092838;28;20543;-87
2022/10/08 07:36:27;;;;;;;0.35;0.35;;;11.10;99.90;;;;;;5080607;28;20043;-87
2022/10/08 07:38:54;;;;;;;0.57;0.57;;;11.20;99.90;;;;;;5074495;28;20059;-87
2022/10/08 07:41:20;;;;;;;1.33;1.25;;;11.20;99.90;;;;;;5093468;28;20075;-86
2022/10/08 07:43:52;;;;;;;0.40;0.40;;;11.30;99.90;;;;;;5092171;28;20089;-87
2022/10/08 07:46:19;;;;;;;0.40;0.40;;;11.30;99.90;;;;;;5058392;28;20109;-87
2022/10/08 07:48:45;;;;;;;0.50;0.50;;;11.40;99.90;;;;;;5072254;28;20297;-84
2022/10/08 07:51:15;;;;;;;;;;;11.30;99.90;;;;;;5092027;28;20060;-86
2022/10/08 07:53:42;;;;;;;0.40;0.40;;;11.30;99.90;;;;;;5060966;28;20318;-84
2022/10/08 07:56:13;;;;;;;0.40;0.40;;;11.20;99.90;;;;;;5090585;28;20488;-85
2022/10/08 07:58:39;;;;;;;0.47;0.47;;;11.50;99.90;;;;;;5074896;28;20080;-88
2022/10/08 08:01:06;;;;;;;;;;;11.30;99.90;;;;;;5093966;28;20488;-86
2022/10/08 08:03:33;;;;;;;0.60;0.60;;;11.40;99.90;;;;;;5087835;28;19962;-87
2022/10/08 08:06:11;;;;;;;0.40;0.40;;;11.50;99.90;;;;;;5077382;28;20041;-87
2022/10/08 08:08:39;;;;;;;0.40;0.40;;;11.60;99.90;;;;;;5088085;28;20477;-85
2022/10/08 08:11:06;;;;;;;0.40;0.40;;;11.70;99.90;;;;;;5092040;28;20520;-86
2022/10/08 08:13:35;;;;;;;0.30;0.30;;;11.80;99.90;;;;;;5075682;28;20045;-86
2022/10/08 08:16:26;;;;;;;0.50;0.50;;;11.90;99.90;;;;;;5090043;28;20493;-86
2022/10/08 08:18:58;;;;;;;0.50;0.50;;;12.00;99.90;;;;;;5095648;28;20039;-85
2022/10/08 08:21:29;;;;;;;0.60;0.60;;;12.30;99.90;;;;;;5073512;28;20067;-86
2022/10/08 08:24:03;;;;;;;0.40;0.40;;;12.40;99.90;;;;;;5088325;28;20514;-85
2022/10/08 08:26:32;;;;;;;0.40;0.40;;;12.60;99.90;;;;;;5086822;28;20047;-86
2022/10/08 08:29:01;;;;;;;0.60;0.60;;;12.90;99.90;;;;;;5092701;28;20062;-87
2022/10/08 08:31:32;;;;;;;0.40;0.40;;;;;;;;;;5094653;28;20047;-87
2022/10/08 08:34:07;;;;;;;0.30;0.30;;;13.30;99.90;;;;;;5095584;28;20028;-86
2022/10/08 08:36:41;;;;;;;0.40;0.40;;;13.50;99.90;;;;;;5062888;28;20041;-86
2022/10/08 08:39:12;;;;;;;0.85;0.85;;;13.40;99.90;;;;;;5077648;28;20072;-86
2022/10/08 08:41:52;;;;;;;0.30;0.30;;;13.30;99.90;;;;;;5057894;28;20553;-89
2022/10/08 08:44:38;;;;;;;0.30;0.30;;;13.10;99.90;;;;;;5089059;28;20083;-87
2022/10/08 08:47:12;;;;;;;0.57;0.57;;;12.90;99.90;;;;;;5099365;28;20043;-86
2022/10/08 08:49:46;;;;;;;0.40;0.40;;;12.80;99.90;;;;;;5091600;28;20036;-86
2022/10/08 08:52:15;;;;;;;0.35;0.35;;;12.60;99.90;;;;;;5091398;28;20485;-86
2022/10/08 08:54:42;;;;;;;0.30;0.30;;;12.40;99.90;;;;;;5059567;28;20040;-85
2022/10/08 08:57:28;;;;;;;0.40;0.40;;;12.20;99.90;;;;;;5066611;28;20040;-85
2022/10/08 08:59:59;;;;;;;0.40;0.40;;;12.10;99.90;;;;;;5091751;28;20040;-86
2022/10/08 09:02:36;;;;;;;0.30;0.30;;;12.20;99.90;;;;;;5075071;28;20329;-86
2022/10/08 09:05:11;;;;;;;0.30;0.30;;;12.30;99.90;;;;;;5093223;28;20166;-87
2022/10/08 09:07:44;;;;;;;0.30;0.30;;;12.40;99.90;;;;;;5074993;28;20041;-86
2022/10/08 09:10:20;;;;;;;0.40;0.40;;;12.50;99.90;;;;;;5091425;28;20050;-85
2022/10/08 09:12:49;;;;;;;0.63;0.63;;;12.60;99.90;;;;;;5079069;28;20110;-86
2022/10/08 09:15:18;;;;;;;0.28;0.28;;;12.80;99.90;;;;;;5083345;28;20036;-86
2022/10/08 09:17:50;;;;;;;0.30;0.30;;;13.10;99.90;;;;;;5078981;28;20032;-85
2022/10/08 09:20:17;;;;;;;0.40;0.40;;;13.20;99.90;;;;;;5078896;28;20093;-86
2022/10/08 09:22:44;;;;;;;0.40;0.40;;;13.30;99.90;;;;;;5064500;28;20040;-85
2022/10/08 09:25:22;;;;;;;0.28;0.28;;;13.40;99.90;;;;;;5089897;28;20036;-85
2022/10/08 09:27:56;;;;;;;1.67;1.58;;;13.70;99.90;;;;;;5085015;28;20100;-86
2022/10/08 09:30:31;;;;;;;0.20;0.20;;;14.00;99.90;;;;;;5056164;28;20063;-84
2022/10/08 09:33:00;;;;;;;3.85;0.40;;;14.20;99.90;;;;;;5095630;28;20065;-85
2022/10/08 09:35:26;;;;;;;0.20;0.20;;;14.30;99.90;;;;;;5093777;28;20040;-86
2022/10/08 09:37:55;;;;;;;0.30;0.30;;;14.20;99.90;;;;;;5073482;28;20052;-85
2022/10/08 09:40:23;;;;;;;0.40;0.40;;;14.10;99.90;;;;;;5089181;28;20095;-83
2022/10/08 09:43:13;;;;;;;0.47;0.47;;;14.10;99.90;;;;;;5091668;28;20633;-85
2022/10/08 09:45:41;;;;;;;0.20;0.20;;;14.20;99.90;;;;;;5088730;28;20070;-85
2022/10/08 09:48:25;;;;;;;0.22;0.22;;;14.20;99.90;;;;;;5091598;28;20047;-84
2022/10/08 09:50:57;;;;;;;0.25;0.25;;;14.20;99.90;;;;;;5087020;28;20457;-85
2022/10/08 09:53:27;;;;;;;0.32;0.32;;;14.10;99.90;;;;;;5072204;28;20350;-83
2022/10/08 09:55:59;;;;;;;0.20;0.20;;;13.90;99.90;;;;;;5083342;28;20047;-85
2022/10/08 09:58:32;;;;;;;0.30;0.30;;;13.60;99.90;;;;;;5091086;28;20044;-85
2022/10/08 10:01:23;;;;;;;0.30;0.30;;;13.50;99.90;;;;;;5093187;28;20127;-83
2022/10/08 10:04:26;;;;;;;1.40;1.30;;;13.60;99.90;;;;;;5062137;28;20032;-84
2022/10/08 10:06:54;;;;;;;0.30;0.30;;;13.60;99.90;;;;;;5050291;28;20396;-85
2022/10/08 10:10:05;;;;;;;0.30;0.30;;;13.70;99.90;;;;;;5088937;28;20082;-85
2022/10/08 10:12:33;;;;;;;0.30;0.30;;;13.80;99.90;;;;;;5083923;28;20044;-85
2022/10/08 10:15:04;;;;;;;0.30;0.30;;;14.00;99.90;;;;;;5083064;28;20084;-84
2022/10/08 10:17:51;;;;;;;0.28;0.28;;;14.20;99.90;;;;;;5072107;28;20043;-83
2022/10/08 10:20:21;;;;;;;0.25;0.25;;;14.40;99.90;;;;;;5085372;28;20119;-83
2022/10/08 10:22:52;;;;;;;0.20;0.20;;;14.70;99.90;;;;;;5083453;28;20115;-84
2022/10/08 10:25:24;;;;;;;1.58;1.48;;;14.80;99.90;;;;;;5078838;28;20047;-85
2022/10/08 10:27:58;;;;;;;0.20;0.20;;;15.00;99.90;;;;;;5070673;28;20032;-83
2022/10/08 10:30:24;;;;;;;0.20;0.20;;;15.10;99.90;;;;;;5088036;28;20080;-82
2022/10/08 10:33:20;;;;;;;1.25;1.15;;;15.20;99.90;;;;;;5083742;28;20048;-83
2022/10/08 10:35:51;;;;;;;0.52;0.45;;;15.40;99.90;;;;;;5078509;28;20161;-83
2022/10/08 10:38:27;;;;;;;0.25;0.25;;;15.50;99.90;;;;;;5062777;28;20040;-82
2022/10/08 10:41:12;;;;;;;0.30;0.30;;;15.50;99.90;;;;;;5089699;28;20056;-83
2022/10/08 10:43:56;;;;;;;0.35;0.35;;;15.40;99.90;;;;;;5088384;28;20080;-83
2022/10/08 10:46:45;;;;;;;0.82;0.82;;;15.40;99.90;;;;;;5087059;28;20040;-82
2022/10/08 10:49:20;;;;;;;0.30;0.30;;;15.40;99.90;;;;;;5089987;28;20090;-84
2022/10/08 10:51:55;;;;;;;0.73;0.73;;;15.50;99.90;;;;;;5087655;28;20211;-84
2022/10/08 10:54:51;;;;;;;0.45;0.45;;;15.80;99.90;;;;;;5083149;28;20043;-84
2022/10/08 10:58:02;;;;;;;0.20;0.20;;;16.20;99.90;;;;;;5081828;28;20098;-84
2022/10/08 11:01:04;;;;;;;0.30;0.30;;;15.80;99.90;;;;;;5070767;28;20435;-83
2022/10/08 11:03:48;;;;;;;0.30;0.30;;;14.80;99.90;;;;;;5092714;28;20400;-83
2022/10/08 11:06:31;;;;;;;0.35;0.35;;;14.10;99.90;;;;;;5092582;28;20043;-83
2022/10/08 11:09:15;;;;;;;0.30;0.30;;;13.70;99.90;;;;;;5089479;28;20173;-83
2022/10/08 11:11:51;;;;;;;0.20;0.20;;;13.60;99.90;;;;;;5083010;28;20489;-84
2022/10/08 11:14:23;;;;;;;0.20;0.20;;;13.50;99.90;;;;;;5089873;28;20032;-83
2022/10/08 11:17:02;;;;;;;0.20;0.20;;;13.40;99.90;;;;;;5090258;28;20049;-84
2022/10/08 11:20:06;;;;;;;0.35;0.35;;;13.30;99.90;;;;;;5096251;28;20084;-85
2022/10/08 11:22:49;;;;;;;0.20;0.20;;;13.30;99.90;;;;;;5085515;28;20509;-85
2022/10/08 11:25:35;;;;;;;0.30;0.30;;;13.50;99.90;;;;;;5090038;28;20393;-84
2022/10/08 11:28:26;;;;;;;0.82;0.82;;;13.50;99.90;;;;;;5081128;28;20040;-85
2022/10/08 11:31:01;;;;;;;0.30;0.30;;;13.30;99.90;;;;;;5090514;28;20055;-83
2022/10/08 11:33:28;;;;;;;0.45;0.45;;;13.20;99.90;;;;;;5092450;28;20051;-83
2022/10/08 11:36:19;;;;;;;0.20;0.20;;;13.00;99.90;;;;;;5074096;28;20052;-83
2022/10/08 11:38:56;;;;;;;0.30;0.30;;;12.90;99.90;;;;;;5080228;28;20415;-84
2022/10/08 11:41:31;;;;;;;1.17;1.08;;;12.80;99.90;;;;;;5083757;28;20047;-84
2022/10/08 11:44:02;;;;;;;0.40;0.40;;;12.70;99.90;;;;;;5076621;28;20111;-82
2022/10/08 11:46:31;;;;;;;0.73;0.73;;;12.60;99.90;;;;;;5062095;28;20040;-82
2022/10/08 11:48:57;;;;;;;0.50;0.50;;;12.40;99.90;;;;;;5074314;28;20082;-82
2022/10/08 11:51:22;;;;;;;0.28;0.28;;;12.20;99.90;;;;;;5062211;28;20103;-84
2022/10/08 11:54:13;;;;;;;1.17;1.05;;;12.10;99.90;;;;;;5060532;28;20051;-84
2022/10/08 11:56:51;;;;;;;0.30;0.30;;;11.90;99.90;;;;;;5083520;28;20036;-84
2022/10/08 11:59:43;;;;;;;0.30;0.30;;;11.90;99.90;;;;;;5088071;28;20040;-83
2022/10/08 12:02:36;;;;;;;0.32;0.32;;;12.00;99.90;;;;;;5061917;28;20044;-83
2022/10/08 12:05:41;;;;;;;0.30;0.30;;;12.30;99.90;;;;;;5077379;28;20511;-84
2022/10/08 12:08:07;;;;;;;0.40;0.40;;;12.70;99.90;;;;;;5063542;28;20052;-84
2022/10/08 12:10:39;;;;;;;7.60;0.60;;;12.90;99.90;;;;;;5078907;28;20078;-84
2022/10/08 12:13:30;;;;;;;0.40;0.40;;;13.30;99.90;;;;;;5060212;28;20040;-84
2022/10/08 12:15:56;;;;;;;0.63;0.63;;;13.60;99.90;;;;;;5064491;28;20512;-82
2022/10/08 12:18:24;;;;;;;0.52;0.52;;;13.90;99.90;;;;;;5072584;28;20038;-81
2022/10/08 12:21:14;;;;;;;0.30;0.30;;;14.30;99.90;;;;;;5094521;28;20050;-84
2022/10/08 12:23:40;;;;;;;0.52;0.52;;;14.70;99.90;;;;;;5080288;28;20086;-83
2022/10/08 12:26:07;;;;;;;0.43;0.43;;;14.90;99.90;;;;;;5069084;28;20076;-84
2022/10/08 12:28:36;;;;;;;0.30;0.30;;;15.00;99.90;;;;;;5082133;28;20130;-83
2022/10/08 12:31:27;;;;;;;1.55;1.45;;;15.00;99.90;;;;;;5084462;28;20551;-83
2022/10/08 12:34:17;;;;;;;0.20;0.20;;;15.00;99.90;;;;;;5085334;28;20456;-82
2022/10/08 12:37:04;;;;;;;;;;;15.00;99.90;;;;;;5089427;28;20047;-82
2022/10/08 12:39:44;;;;;;;0.30;0.30;;;14.70;99.90;;;;;;5062586;28;19923;-83
2022/10/08 12:42:18;;;;;;;0.73;0.73;;;14.50;99.90;;;;;;5065303;28;20044;-82
2022/10/08 12:45:00;;;;;;;0.30;0.30;;;14.30;99.90;;;;;;5067633;28;20047;-81
2022/10/08 12:47:28;;;;;;;0.45;0.45;;;14.10;99.90;;;;;;5082045;28;20413;-82
2022/10/08 12:50:31;;;;;;;0.20;0.20;;;13.90;99.90;;;;;;5082977;28;20055;-82
2022/10/08 12:53:02;;;;;;;0.30;0.30;;;13.70;99.90;;;;;;5070023;28;20051;-83
2022/10/08 12:55:29;;;;;;;6.03;0.80;;;13.70;99.90;;;;;;5061584;28;20084;-81
2022/10/08 12:57:55;;;;;;;0.20;0.20;;;13.70;99.90;;;;;;5061907;28;20047;-82
2022/10/08 13:00:23;;;;;;;0.25;0.25;;;13.70;99.90;;;;;;5079438;28;20062;-82
2022/10/08 13:03:02;;;;;;;1.25;0.77;;;13.60;99.90;;;;;;5090452;28;20040;-83
2022/10/08 13:05:32;;;;;;;0.20;0.20;;;13.60;99.90;;;;;;5089505;28;20043;-82
2022/10/08 13:08:37;;;;;;;0.65;0.65;;;13.50;99.90;;;;;;5062720;28;20048;-81
2022/10/08 13:11:12;;;;;;;0.30;0.30;;;13.60;99.90;;;;;;5067357;28;20131;-82
2022/10/08 13:13:37;;;;;;;0.38;0.38;;;13.50;99.90;;;;;;5081863;28;20526;-83
2022/10/08 13:16:19;;;;;;;0.20;0.20;;;13.70;99.90;;;;;;5081334;28;20215;-82
2022/10/08 13:18:49;;;;;;;0.20;0.20;;;13.80;99.90;;;;;;5085197;28;20158;-82
2022/10/08 13:21:31;;;;;;;0.30;0.30;;;14.00;99.90;;;;;;5075834;28;20542;-82
2022/10/08 13:23:58;;;;;;;0.30;0.30;;;14.20;99.90;;;;;;5080656;28;20048;-82